createdAt,value
2022-11-19T00:02:28.094Z,3.50
2022-11-19T00:07:32.296Z,3.38
2022-11-19T00:12:36.486Z,3.33
2022-11-19T00:17:40.595Z,3.29
2022-11-19T00:22:44.719Z,3.28
2022-11-19T00:27:48.890Z,3.20
2022-11-19T00:32:53.078Z,3.15
2022-11-19T00:37:57.262Z,3.05
2022-11-19T00:43:01.416Z,3.02
2022-11-19T00:48:05.571Z,2.90
2022-11-19T00:53:09.728Z,2.93
2022-11-19T00:58:13.883Z,2.96
2022-11-19T01:03:18.040Z,2.83
2022-11-19T01:08:22.236Z,2.89
2022-11-19T01:13:26.387Z,2.94
2022-11-19T01:18:30.521Z,2.85
2022-11-19T01:23:34.768Z,2.77
2022-11-19T01:28:37.246Z,2.70
2022-11-19T01:33:41.154Z,2.71
2022-11-19T01:38:45.285Z,2.58
2022-11-19T01:43:49.485Z,2.59
2022-11-19T01:48:53.615Z,2.51
2022-11-19T01:53:57.803Z,2.40
2022-11-19T01:59:00.097Z,2.31
2022-11-19T02:04:04.287Z,2.24
2022-11-19T02:09:08.438Z,2.27
2022-11-19T02:14:12.558Z,2.28
2022-11-19T02:19:17.089Z,2.18
2022-11-19T02:24:20.903Z,2.15
2022-11-19T02:29:25.037Z,2.11
2022-11-19T02:34:29.257Z,2.03
2022-11-19T02:39:33.383Z,1.98
2022-11-19T02:44:37.571Z,1.97
2022-11-19T02:49:41.716Z,1.91
2022-11-19T02:54:45.870Z,1.80
2022-11-19T02:59:50.039Z,1.83
2022-11-19T03:04:54.242Z,1.82
2022-11-19T03:09:58.354Z,1.83
2022-11-19T03:15:02.538Z,1.90
2022-11-19T03:20:06.708Z,1.83
2022-11-19T03:25:10.859Z,1.89
2022-11-19T03:30:15.042Z,1.92
2022-11-19T03:35:19.198Z,1.82
2022-11-19T03:40:23.381Z,1.88
2022-11-19T03:45:27.544Z,1.92
2022-11-19T03:50:31.682Z,1.86
2022-11-19T03:55:35.852Z,1.85
2022-11-19T04:00:40.014Z,1.76
2022-11-19T04:05:44.183Z,1.75
2022-11-19T04:10:48.350Z,1.66
2022-11-19T04:15:52.532Z,1.73
2022-11-19T04:20:56.687Z,1.73
2022-11-19T04:26:00.851Z,1.72
2022-11-19T04:31:05.022Z,1.63
2022-11-19T04:36:09.188Z,1.57
2022-11-19T04:41:13.361Z,1.62
2022-11-19T04:46:17.504Z,1.65
2022-11-19T04:51:21.681Z,1.63
2022-11-19T04:56:25.847Z,1.64
2022-11-19T05:01:30.043Z,1.63
2022-11-19T05:06:34.167Z,1.63
2022-11-19T05:11:38.297Z,1.63
2022-11-19T05:16:42.497Z,1.53
2022-11-19T05:21:46.648Z,1.45
2022-11-19T05:26:50.816Z,1.45
2022-11-19T05:31:55.007Z,1.54
2022-11-19T05:36:59.138Z,1.49
2022-11-19T05:42:03.336Z,1.45
2022-11-19T05:47:07.464Z,1.38
2022-11-19T05:52:11.653Z,1.25
2022-11-19T05:57:15.826Z,1.30
2022-11-19T06:02:19.970Z,1.24
2022-11-19T06:07:24.314Z,1.16
2022-11-19T06:12:28.297Z,1.20
2022-11-19T06:17:32.436Z,1.17
2022-11-19T06:22:36.621Z,1.16
2022-11-19T06:27:40.811Z,1.09
2022-11-19T06:32:44.963Z,1.11
2022-11-19T06:37:49.110Z,0.99
2022-11-19T06:42:53.286Z,1.09
2022-11-19T06:47:57.464Z,1.08
2022-11-19T06:53:01.619Z,0.94
2022-11-19T06:58:05.786Z,0.98
2022-11-19T07:03:10.036Z,0.95
2022-11-19T07:08:14.135Z,1.06
2022-11-19T07:13:18.293Z,1.11
2022-11-19T07:18:22.442Z,1.06
2022-11-19T07:23:26.603Z,1.11
2022-11-19T07:28:28.903Z,1.15
2022-11-19T07:33:33.084Z,1.13
2022-11-19T07:38:37.357Z,1.03
2022-11-19T07:43:41.374Z,1.04
2022-11-19T07:48:45.514Z,1.03
2022-11-19T07:53:49.732Z,1.01
2022-11-19T07:58:53.886Z,1.05
2022-11-19T08:03:58.053Z,1.02
2022-11-19T08:09:02.258Z,0.96
2022-11-19T08:14:06.366Z,1.01
2022-11-19T08:19:10.543Z,0.91
2022-11-19T08:24:14.684Z,0.90
2022-11-19T08:29:18.868Z,0.82
2022-11-19T08:34:23.272Z,0.82
2022-11-19T08:39:27.187Z,0.80
2022-11-19T08:44:31.381Z,0.65
2022-11-19T08:49:35.517Z,0.74
2022-11-19T08:54:39.709Z,0.69
2022-11-19T08:59:43.891Z,0.76
2022-11-19T09:04:48.013Z,0.80
2022-11-19T09:09:52.183Z,0.87
2022-11-19T09:14:56.386Z,0.70
2022-11-19T09:20:00.524Z,0.70
2022-11-19T09:25:04.728Z,0.70
2022-11-19T09:30:08.863Z,0.73
2022-11-19T09:35:13.028Z,0.70
2022-11-19T09:40:17.198Z,0.80
2022-11-19T09:45:21.361Z,0.70
2022-11-19T09:50:25.527Z,0.69
2022-11-19T09:55:29.733Z,0.76
2022-11-19T10:00:33.866Z,0.82
2022-11-19T10:05:37.997Z,0.81
2022-11-19T10:10:42.217Z,0.81
2022-11-19T10:20:50.512Z,1.08
2022-11-19T10:25:54.700Z,1.06
2022-11-19T10:30:58.808Z,1.08
2022-11-19T10:36:03.085Z,1.06
2022-11-19T10:41:07.396Z,1.24
2022-11-19T10:46:11.340Z,1.40
2022-11-19T10:51:15.493Z,1.49
2022-11-19T11:01:23.911Z,1.53
2022-11-19T11:06:27.992Z,1.64
2022-11-19T11:11:32.168Z,1.79
2022-11-19T11:16:37.920Z,1.78
2022-11-19T11:21:40.500Z,1.67
2022-11-19T11:26:44.635Z,1.55
2022-11-19T11:31:48.823Z,1.58
2022-11-19T11:36:53.030Z,1.48
2022-11-19T11:42:06.373Z,1.52
2022-11-19T11:47:01.284Z,1.63
2022-11-19T11:52:05.474Z,1.79
2022-11-19T11:57:09.603Z,1.93
2022-11-19T12:02:13.834Z,1.91
2022-11-19T12:07:18.020Z,2.00
2022-11-19T12:12:22.140Z,2.11
2022-11-19T12:17:26.287Z,2.15
2022-11-19T12:22:30.555Z,2.17
2022-11-19T12:27:34.634Z,2.28
2022-11-19T12:32:38.766Z,2.31
2022-11-19T12:37:42.929Z,2.22
2022-11-19T12:42:47.099Z,2.19
2022-11-19T12:47:51.279Z,2.15
2022-11-19T12:52:55.460Z,2.22
2022-11-19T12:57:57.743Z,2.35
2022-11-19T13:03:01.910Z,2.35
2022-11-19T13:08:06.060Z,2.23
2022-11-19T13:13:10.327Z,2.13
2022-11-19T13:18:14.408Z,2.12
2022-11-19T13:23:18.531Z,2.14
2022-11-19T13:28:22.676Z,2.11
2022-11-19T13:33:26.902Z,2.12
2022-11-19T13:38:31.009Z,2.06
2022-11-19T13:43:35.224Z,1.85
2022-11-19T13:48:39.376Z,1.81
2022-11-19T13:53:43.511Z,1.76
2022-11-19T13:58:47.676Z,1.71
2022-11-19T14:03:51.863Z,1.61
2022-11-19T14:08:56.049Z,1.66
2022-11-19T14:14:00.172Z,1.83
2022-11-19T14:19:04.335Z,1.97
2022-11-19T14:24:08.562Z,1.99
2022-11-19T14:29:12.661Z,1.84
2022-11-19T14:34:16.888Z,1.67
2022-11-19T14:39:21.118Z,1.49
2022-11-19T14:44:25.186Z,1.27
2022-11-19T14:49:29.367Z,1.18
2022-11-19T14:54:33.780Z,1.09
2022-11-19T14:59:37.662Z,1.03
2022-11-19T15:04:41.845Z,0.92
2022-11-19T15:09:46.034Z,0.79
2022-11-19T15:14:50.178Z,0.72
2022-11-19T15:19:54.332Z,0.64
2022-11-19T15:24:58.488Z,0.58
2022-11-19T15:30:03.852Z,0.58
2022-11-19T15:35:11.539Z,0.47
2022-11-19T15:40:11.011Z,0.35
2022-11-19T15:45:15.160Z,0.36
2022-11-19T15:50:19.333Z,0.31
2022-11-19T15:55:23.483Z,0.24
2022-11-19T16:00:27.665Z,0.22
2022-11-19T16:05:31.806Z,0.20
2022-11-19T16:10:35.970Z,0.15
2022-11-19T16:15:40.133Z,0.15
2022-11-19T16:20:44.302Z,0.22
2022-11-19T16:25:48.463Z,0.26
2022-11-19T16:30:52.681Z,0.28
2022-11-19T16:35:56.824Z,0.29
2022-11-19T16:41:00.977Z,0.28
2022-11-19T16:46:05.136Z,0.29
2022-11-19T16:51:09.316Z,0.26
2022-11-19T16:56:16.761Z,0.22
2022-11-19T17:01:17.769Z,0.09
2022-11-19T17:06:21.815Z,-0.05
2022-11-19T17:11:25.965Z,-0.09
2022-11-19T17:16:30.163Z,-0.15
2022-11-19T17:21:34.309Z,-0.25
2022-11-19T17:26:38.477Z,-0.34
2022-11-19T17:31:42.657Z,-0.51
2022-11-19T17:36:46.798Z,-0.66
2022-11-19T17:41:50.973Z,-0.84
2022-11-19T17:46:55.161Z,-0.93
2022-11-19T17:51:59.322Z,-1.07
2022-11-19T17:57:03.470Z,-1.12
2022-11-19T18:02:07.670Z,-1.30
2022-11-19T18:07:11.889Z,-1.46
2022-11-19T18:12:16.006Z,-1.55
2022-11-19T18:17:20.143Z,-1.59
2022-11-19T18:22:24.273Z,-1.68
2022-11-19T18:27:26.571Z,-1.88
2022-11-19T18:32:30.739Z,-2.02
2022-11-19T18:37:34.926Z,-2.04
2022-11-19T18:42:39.077Z,-2.10
2022-11-19T18:47:43.258Z,-2.18
2022-11-19T18:52:47.417Z,-2.18
2022-11-19T18:57:49.689Z,-2.26
2022-11-19T19:02:53.854Z,-2.34
2022-11-19T19:07:57.995Z,-2.28
2022-11-19T19:13:02.223Z,-2.34
2022-11-19T19:18:07.909Z,-2.38
2022-11-19T19:23:10.649Z,-2.48
2022-11-19T19:28:14.697Z,-2.52
2022-11-19T19:33:18.864Z,-2.56
2022-11-19T19:38:23.020Z,-2.59
2022-11-19T19:43:27.176Z,-2.65
2022-11-19T19:48:31.351Z,-2.70
2022-11-19T19:53:35.532Z,-2.71
2022-11-19T19:58:39.710Z,-2.79
2022-11-19T20:03:43.882Z,-2.76
2022-11-19T20:08:48.037Z,-2.79
2022-11-19T20:13:52.183Z,-2.79
2022-11-19T20:18:56.372Z,-2.79
2022-11-19T20:24:00.537Z,-2.79
2022-11-19T20:29:04.709Z,-2.80
2022-11-19T20:34:08.842Z,-2.88
2022-11-19T20:39:13.031Z,-2.93
2022-11-19T20:44:17.210Z,-3.01
2022-11-19T20:49:21.729Z,-3.05
2022-11-19T20:54:25.502Z,-3.03
2022-11-19T20:59:29.736Z,-3.04
2022-11-19T21:04:33.866Z,-3.17
2022-11-19T21:09:38.012Z,-3.22
2022-11-19T21:14:42.184Z,-3.24
2022-11-19T21:19:46.434Z,-3.23
2022-11-19T21:24:50.570Z,-3.13
2022-11-19T21:29:54.708Z,-3.09
2022-11-19T21:34:58.890Z,-3.03
2022-11-19T21:40:03.074Z,-3.03
2022-11-19T21:45:07.187Z,-3.01
2022-11-19T21:50:11.373Z,-3.15
2022-11-19T21:55:15.552Z,-3.29
2022-11-19T22:00:22.845Z,-3.33
2022-11-19T22:05:24.025Z,-3.35
2022-11-19T22:10:28.062Z,-3.37
2022-11-19T22:15:32.201Z,-3.36
2022-11-19T22:20:36.626Z,-3.40
2022-11-19T22:25:40.601Z,-3.37
2022-11-19T22:30:44.731Z,-3.37
2022-11-19T22:35:48.880Z,-3.31
2022-11-19T22:40:53.055Z,-3.39
2022-11-19T22:45:57.201Z,-3.40
2022-11-19T22:51:01.420Z,-3.47
2022-11-19T22:56:05.583Z,-3.55
2022-11-19T23:01:09.807Z,-3.51
2022-11-19T23:06:13.903Z,-3.50
2022-11-19T23:11:18.087Z,-3.58
2022-11-19T23:16:22.241Z,-3.56
2022-11-19T23:21:26.418Z,-3.60
2022-11-19T23:26:30.586Z,-3.66
2022-11-19T23:31:34.724Z,-3.72
2022-11-19T23:36:38.885Z,-3.76
2022-11-19T23:41:43.037Z,-3.81
2022-11-19T23:46:47.230Z,-3.68
2022-11-19T23:51:51.417Z,-3.57
2022-11-19T23:56:55.639Z,-3.46
